Time;durP1;ratioP1;P1;durP2;ratioP2;P2;SDS_P1;SDS_P2;PMS_P1;PMS_P2;Temp;Humidity;BMP_temperature;BMP_pressure;BME280_temperature;BME280_humidity;BME280_pressure;Samples;Min_cycle;Max_cycle;Signal;HPM_P1;HPM_P2
2021/12/14 00:01:44;;;;;;;77.43;44.92;;;;;;;-3.75;100.00;96872.13;5069829;28;20048;-62
2021/12/14 00:04:12;;;;;;;84.07;44.65;;;;;;;-3.76;100.00;96872.13;5071516;28;20043;-61
2021/12/14 00:06:39;;;;;;;84.22;42.55;;;;;;;-3.85;100.00;96880.00;5070582;28;20107;-61
2021/12/14 00:09:09;;;;;;;68.05;38.08;;;;;;;-3.86;100.00;96874.03;5069771;28;20047;-62
2021/12/14 00:16:59;;;;;;;63.08;36.97;;;;;;;-3.92;100.00;96871.53;5070817;28;20033;-61
2021/12/14 00:19:26;;;;;;;55.67;35.42;;;;;;;-3.93;100.00;96872.41;5071868;28;20044;-61
2021/12/14 00:21:54;;;;;;;67.18;37.10;;;;;;;-3.96;100.00;96867.31;5071940;28;20127;-62
2021/12/14 00:24:25;;;;;;;49.97;31.95;;;;;;;-3.99;100.00;96862.22;5063411;28;20119;-59
2021/12/14 00:26:58;;;;;;;71.40;34.92;;;;;;;-3.93;100.00;96873.28;5071984;28;20020;-59
2021/12/14 00:29:34;;;;;;;50.20;30.38;;;;;;;-3.89;100.00;96871.47;5067465;28;20550;-59
2021/12/14 00:32:04;;;;;;;55.42;32.10;;;;;;;-3.89;100.00;96874.91;5071699;28;20127;-59
2021/12/14 00:34:38;;;;;;;68.50;39.17;;;;;;;-3.97;100.00;96873.34;5071875;28;20143;-59
2021/12/14 00:37:07;;;;;;;55.88;34.70;;;;;;;-4.03;100.00;96871.69;5071633;28;20086;-59
2021/12/14 00:39:33;;;;;;;70.65;33.30;;;;;;;-4.04;100.00;96870.88;5062334;28;20503;-59
2021/12/14 00:41:58;;;;;;;58.13;33.35;;;;;;;-4.04;100.00;96873.44;5071774;28;20039;-59
2021/12/14 00:44:24;;;;;;;46.50;31.52;;;;;;;-3.99;100.00;96862.22;5070867;28;20139;-59
2021/12/14 00:46:51;;;;;;;62.38;35.13;;;;;;;-3.99;100.00;96867.38;5071393;28;20032;-59
2021/12/14 00:49:16;;;;;;;48.00;30.90;;;;;;;-4.05;100.00;96869.16;5083239;28;20143;-59
2021/12/14 00:51:42;;;;;;;50.53;32.70;;;;;;;-4.04;100.00;96870.88;5091587;28;20562;-59
2021/12/14 00:54:12;;;;;;;56.13;33.85;;;;;;;-4.04;100.00;96867.44;5091860;28;20039;-59
2021/12/14 00:56:40;;;;;;;58.17;33.15;;;;;;;-4.10;100.00;96863.22;5073288;28;20028;-59
2021/12/14 00:59:08;;;;;;;52.20;31.55;;;;;;;-4.20;100.00;96865.09;5091467;28;20031;-59
2021/12/14 01:01:46;;;;;;;48.40;29.92;;;;;;;-4.23;100.00;96867.69;5091593;28;20114;-59
2021/12/14 01:04:18;;;;;;;39.35;26.73;;;;;;;-4.25;100.00;96872.03;5091359;28;20028;-59
2021/12/14 01:06:45;;;;;;;45.55;27.67;;;;;;;-4.23;100.00;96870.28;5091214;28;20036;-61
2021/12/14 01:09:18;;;;;;;34.65;25.33;;;;;;;-4.17;100.00;96870.22;5091036;28;20086;-61
2021/12/14 01:11:48;;;;;;;36.92;26.80;;;;;;;-4.17;100.00;96867.63;5087237;28;20032;-60
2021/12/14 01:14:28;;;;;;;46.78;30.02;;;;;;;-4.11;100.00;96874.38;5091169;28;20432;-59
2021/12/14 01:17:14;;;;;;;35.17;26.23;;;;;;;-4.13;100.00;96871.00;5083002;28;20460;-61
2021/12/14 01:19:48;;;;;;;33.60;24.85;;;;;;;-4.12;100.00;96870.13;5090913;28;20086;-61
2021/12/14 01:27:22;;;;;;;39.92;24.83;;;;;;;-4.16;100.00;96871.03;5090946;28;20044;-61
2021/12/14 01:29:49;;;;;;;39.22;25.30;;;;;;;-4.13;100.00;96865.84;5090884;28;20038;-59
2021/12/14 01:32:15;;;;;;;36.90;24.20;;;;;;;-4.12;100.00;96874.41;5073450;28;20036;-59
2021/12/14 01:34:41;;;;;;;32.00;24.05;;;;;;;-4.14;100.00;96882.16;5090641;28;20388;-59
2021/12/14 01:37:13;;;;;;;33.10;23.77;;;;;;;-4.17;100.00;96879.63;5090873;28;20035;-61
2021/12/14 01:39:49;;;;;;;33.08;22.92;;;;;;;-4.15;100.00;96882.19;5090632;28;20071;-59
2021/12/14 01:42:20;;;;;;;34.58;23.73;;;;;;;-4.24;100.00;96899.44;5090657;28;20415;-59
2021/12/14 01:45:08;;;;;;;28.00;21.77;;;;;;;-4.29;100.00;96893.50;5090468;28;20094;-59
2021/12/14 01:47:40;;;;;;;27.20;18.77;;;;;;;-4.28;100.00;96889.22;5090429;28;20048;-59
2021/12/14 01:50:10;;;;;;;21.75;16.38;;;;;;;-4.22;100.00;96900.25;5072011;28;20455;-59
2021/12/14 01:52:37;;;;;;;22.75;17.05;;;;;;;-4.14;100.00;96905.31;5070212;28;20135;-58
2021/12/14 01:55:18;;;;;;;24.40;18.13;;;;;;;-4.12;100.00;96908.69;5070379;28;20033;-59
2021/12/14 01:57:44;;;;;;;26.17;19.00;;;;;;;-4.12;100.00;96900.97;5069971;28;20043;-58
2021/12/14 02:00:17;;;;;;;31.70;19.90;;;;;;;-4.13;100.00;96896.72;5070335;28;20463;-59
2021/12/14 02:02:45;;;;;;;26.00;19.05;;;;;;;-4.15;100.00;96898.47;5069119;28;20047;-59
2021/12/14 02:05:39;;;;;;;37.20;23.50;;;;;;;-4.23;100.00;96902.88;5069152;28;20029;-59
2021/12/14 02:08:15;;;;;;;32.65;20.73;;;;;;;-4.22;100.00;96897.69;5066380;28;20029;-58
2021/12/14 02:10:41;;;;;;;29.27;21.33;;;;;;;-4.13;100.00;96896.72;5062677;28;20042;-58
2021/12/14 02:13:07;;;;;;;37.53;20.60;;;;;;;-4.05;100.00;96907.75;5069931;28;20037;-59
2021/12/14 02:15:42;;;;;;;35.30;24.00;;;;;;;-3.99;100.00;96899.06;5069630;28;20039;-59
2021/12/14 02:18:14;;;;;;;39.00;23.30;;;;;;;-3.95;100.00;96894.75;5070048;28;20032;-60
2021/12/14 02:20:48;;;;;;;38.85;21.95;;;;;;;-3.95;100.00;96900.75;5069916;28;20129;-61
2021/12/14 02:23:14;;;;;;;41.55;21.55;;;;;;;-3.94;100.00;96892.16;5069479;28;20499;-62
2021/12/14 02:25:40;;;;;;;39.78;21.95;;;;;;;-3.91;100.00;96896.38;5069872;28;20041;-58
2021/12/14 02:28:11;;;;;;;39.70;22.83;;;;;;;-3.88;100.00;96896.34;5067149;28;20032;-58
2021/12/14 02:30:38;;;;;;;31.52;21.20;;;;;;;-3.85;100.00;96896.31;5043884;28;20036;-59
2021/12/14 02:33:17;;;;;;;40.28;23.92;;;;;;;-3.82;100.00;96896.25;5065723;28;20063;-59
2021/12/14 02:35:46;;;;;;;40.13;24.42;;;;;;;-3.80;100.00;96891.06;5069478;28;20047;-59
2021/12/14 02:38:12;;;;;;;39.83;23.80;;;;;;;-3.80;100.00;96899.66;5069755;28;20036;-58
2021/12/14 02:40:54;;;;;;;41.83;23.00;;;;;;;-3.86;100.00;96891.19;5069408;28;20040;-58
2021/12/14 02:43:34;;;;;;;41.17;24.35;;;;;;;-3.95;100.00;96890.47;5069534;28;20052;-58
2021/12/14 02:46:08;;;;;;;42.83;23.27;;;;;;;-3.99;100.00;96882.81;5069225;28;20036;-59
2021/12/14 02:48:34;;;;;;;46.13;26.17;;;;;;;-4.03;100.00;96877.72;5067260;28;20052;-58
2021/12/14 02:51:32;;;;;;;47.10;26.08;;;;;;;-4.01;100.00;96881.97;5089507;28;20411;-58
2021/12/14 02:54:23;;;;;;;41.85;25.30;;;;;;;-4.00;100.00;96875.97;5086312;28;20074;-58
2021/12/14 02:56:53;;;;;;;46.25;25.48;;;;;;;-4.08;100.00;96874.38;5076548;28;20032;-59
2021/12/14 02:59:26;;;;;;;39.97;23.50;;;;;;;-4.17;100.00;96870.22;5089006;28;20036;-59
2021/12/14 03:01:53;;;;;;;36.13;21.90;;;;;;;-4.19;100.00;96874.53;5089305;28;20032;-59
2021/12/14 03:04:19;;;;;;;43.00;20.75;;;;;;;-4.14;100.00;96879.56;5093941;28;20028;-59
2021/12/14 03:06:49;;;;;;;35.33;20.38;;;;;;;-4.08;100.00;96881.22;5093979;28;20572;-59
2021/12/14 03:09:37;;;;;;;36.30;19.65;;;;;;;-4.03;100.00;96875.13;5093740;28;20031;-59
2021/12/14 03:12:08;;;;;;;28.67;18.65;;;;;;;-3.99;100.00;96873.34;5084847;28;20036;-61
2021/12/14 03:14:35;;;;;;;37.45;19.98;;;;;;;-3.99;100.00;96875.09;5085519;28;20032;-62
2021/12/14 03:17:00;;;;;;;34.70;19.45;;;;;;;-3.97;100.00;96869.06;5093727;28;20036;-61
2021/12/14 03:19:26;;;;;;;38.10;19.85;;;;;;;-3.95;100.00;96876.72;5093290;28;20093;-61
2021/12/14 03:21:52;;;;;;;39.95;19.75;;;;;;;-3.69;100.00;96878.03;5093451;28;20036;-61
2021/12/14 03:24:19;;;;;;;35.20;19.58;;;;;;;-3.74;100.00;96880.69;5084439;28;20380;-62
2021/12/14 03:26:50;;;;;;;32.85;20.23;;;;;;;-3.74;100.00;96873.81;5093931;28;20111;-61
2021/12/14 03:29:23;;;;;;;31.42;17.92;;;;;;;-3.65;100.00;96874.53;5093249;28;20028;-62
2021/12/14 03:31:51;;;;;;;29.17;15.98;;;;;;;-3.58;100.00;96873.56;5093163;28;20055;-61
2021/12/14 03:34:30;;;;;;;28.95;18.08;;;;;;;-3.47;100.00;96866.50;5093344;28;20039;-61
2021/12/14 03:37:11;;;;;;;36.58;17.10;;;;;;;-3.43;100.00;96866.44;5089986;28;20046;-61
2021/12/14 03:39:43;;;;;;;30.92;18.33;;;;;;;-3.46;100.00;96868.19;5092928;28;20036;-61
2021/12/14 03:42:14;;;;;;;34.53;19.50;;;;;;;-3.42;100.00;96868.16;5092968;28;20491;-61
2021/12/14 03:44:52;;;;;;;39.63;21.50;;;;;;;-3.39;100.00;96868.94;5092086;28;20077;-61
2021/12/14 03:47:32;;;;;;;46.25;23.98;;;;;;;-3.36;100.00;96873.19;5092986;28;20043;-61
2021/12/14 03:50:02;;;;;;;56.17;30.83;;;;;;;-3.33;100.00;96873.13;5074930;28;20067;-61
2021/12/14 03:52:31;;;;;;;62.00;36.03;;;;;;;-3.29;100.00;96873.94;5072379;28;20522;-61
2021/12/14 03:55:02;;;;;;;69.63;36.20;;;;;;;-3.29;100.00;96874.75;5072872;28;20108;-61
2021/12/14 03:57:27;;;;;;;42.50;19.83;;;;;;;-3.13;100.00;96871.91;5072422;28;20032;-61
2021/12/14 03:59:54;;;;;;;45.30;20.60;;;;;;;-3.09;100.00;96874.41;5072271;28;20040;-59
2021/12/14 04:02:21;;;;;;;36.20;19.83;;;;;;;-3.06;100.00;96873.50;5071794;28;20049;-59
2021/12/14 04:05:02;;;;;;;48.30;19.58;;;;;;;-3.02;100.00;96872.53;5072509;28;20127;-59
2021/12/14 04:07:28;;;;;;;40.67;20.77;;;;;;;-2.98;100.00;96868.19;5072196;28;20035;-59
2021/12/14 04:09:54;;;;;;;44.72;21.60;;;;;;;-2.95;100.00;96874.16;5072195;28;20041;-59
2021/12/14 04:12:23;;;;;;;50.55;21.55;;;;;;;-2.93;100.00;96859.50;5072336;28;20412;-59
2021/12/14 04:14:53;;;;;;;45.72;20.33;;;;;;;-2.85;100.00;96858.47;5071033;28;20059;-61
2021/12/14 04:17:21;;;;;;;45.13;19.10;;;;;;;-2.69;100.00;96864.16;5072337;28;20041;-61
2021/12/14 04:19:46;;;;;;;54.47;16.85;;;;;;;-2.67;100.00;96852.09;5072515;28;20044;-61
2021/12/14 04:22:25;;;;;;;51.85;17.35;;;;;;;-2.66;100.00;96861.53;5071938;28;20032;-61
2021/12/14 04:24:59;;;;;;;44.83;14.35;;;;;;;-2.59;100.00;96856.22;5072630;28;20048;-61
2021/12/14 04:27:28;;;;;;;30.23;12.93;;;;;;;-2.45;100.00;96862.81;5072330;28;20086;-61
2021/12/14 04:29:54;;;;;;;39.95;15.00;;;;;;;-2.40;100.00;96860.97;5072307;28;20028;-58
2021/12/14 04:32:21;;;;;;;34.53;14.05;;;;;;;-2.48;100.00;96861.13;5053210;28;20060;-59
2021/12/14 04:34:49;;;;;;;28.50;14.10;;;;;;;-2.46;100.00;96859.38;5072365;28;20500;-58
2021/12/14 04:37:17;;;;;;;34.30;15.18;;;;;;;-2.49;100.00;96864.59;5072138;28;20032;-59
2021/12/14 04:39:54;;;;;;;26.67;13.45;;;;;;;-2.45;100.00;96862.81;5072224;28;20031;-59
2021/12/14 04:53:37;;;;;;;22.23;14.15;;;;;;;-2.46;100.00;96868.84;5092250;28;20075;-59
2021/12/14 04:56:05;;;;;;;36.38;16.05;;;;;;;-2.52;100.00;96874.97;5091907;28;20043;-59
2021/12/14 04:58:38;;;;;;;32.90;14.15;;;;;;;-2.54;100.00;96876.75;5092083;28;20071;-59
2021/12/14 05:01:07;;;;;;;28.85;13.57;;;;;;;-2.40;100.00;96881.59;5092182;28;20039;-59
2021/12/14 05:03:43;;;;;;;25.33;13.32;;;;;;;-2.44;100.00;96877.41;5091931;28;20035;-59
2021/12/14 05:06:22;;;;;;;36.33;12.52;;;;;;;-2.37;100.00;96885.88;5091910;28;20062;-59
2021/12/14 05:11:22;;;;;;;31.48;13.90;;;;;;;-2.49;100.00;96887.81;5092130;28;20038;-59
2021/12/14 05:13:53;;;;;;;20.50;12.00;;;;;;;-2.38;100.00;96890.16;5091630;28;20111;-59
2021/12/14 05:16:23;;;;;;;23.83;13.13;;;;;;;-2.42;100.00;96888.53;5091782;28;20032;-59
2021/12/14 05:18:56;;;;;;;18.27;11.52;;;;;;;-2.45;100.00;96896.34;5091546;28;20032;-59
2021/12/14 05:21:37;;;;;;;29.02;12.77;;;;;;;-2.48;100.00;96906.72;5090878;28;20453;-61
2021/12/14 05:24:07;;;;;;;30.83;13.75;;;;;;;-2.52;100.00;96897.38;5091691;28;20028;-61
2021/12/14 05:26:33;;;;;;;19.38;12.43;;;;;;;-2.47;100.00;96908.44;5091081;28;20499;-61
2021/12/14 05:28:58;;;;;;;26.73;13.45;;;;;;;-2.48;100.00;96919.63;5091557;28;20036;-62
2021/12/14 05:31:25;;;;;;;28.98;15.65;;;;;;;-2.42;100.00;96916.91;5091662;28;20059;-61
2021/12/14 05:33:53;;;;;;;35.65;14.43;;;;;;;-2.48;100.00;96897.25;5091258;28;20495;-61
2021/12/14 05:36:21;;;;;;;28.73;14.85;;;;;;;-2.50;100.00;96895.59;5079427;28;20082;-61
2021/12/14 05:39:05;;;;;;;20.08;13.52;;;;;;;-2.60;100.00;96897.50;5071050;28;20458;-62
2021/12/14 05:44:18;;;;;;;23.90;13.85;;;;;;;-2.57;100.00;96899.16;5070852;28;20036;-58
2021/12/14 05:46:50;;;;;;;27.40;14.55;;;;;;;-2.57;100.00;96894.88;5070829;28;20020;-59
2021/12/14 05:49:19;;;;;;;25.55;13.25;;;;;;;-2.60;100.00;96898.34;5070764;28;20080;-58
2021/12/14 05:51:46;;;;;;;19.33;13.65;;;;;;;-2.60;100.00;96897.50;5070822;28;20044;-59
2021/12/14 05:54:18;;;;;;;21.00;13.82;;;;;;;-2.63;100.00;96901.00;5070739;28;20445;-59
2021/12/14 05:56:44;;;;;;;22.58;12.73;;;;;;;-2.60;100.00;96895.78;5070633;28;20037;-59
2021/12/14 05:59:09;;;;;;;17.23;12.60;;;;;;;-2.64;100.00;96904.44;5070579;28;20046;-59
2021/12/14 06:01:35;;;;;;;24.75;12.07;;;;;;;-2.67;100.00;96921.72;5070547;28;20028;-60
2021/12/14 06:04:04;;;;;;;19.83;12.13;;;;;;;-2.73;100.00;96917.53;5088227;28;20064;-62
2021/12/14 06:06:34;;;;;;;24.95;13.23;;;;;;;-2.76;100.00;96918.44;5091014;28;20028;-61
2021/12/14 06:09:08;;;;;;;17.48;12.00;;;;;;;-2.74;100.00;96916.69;5090906;28;20047;-61
2021/12/14 06:11:34;;;;;;;19.67;13.07;;;;;;;-2.70;100.00;96920.06;5090767;28;20119;-61
2021/12/14 06:13:59;;;;;;;21.48;12.32;;;;;;;-2.59;100.00;96912.09;5072669;28;20539;-59
2021/12/14 06:16:27;;;;;;;25.08;12.73;;;;;;;-2.50;100.00;96909.31;5090590;28;20038;-61
2021/12/14 06:18:53;;;;;;;27.80;13.43;;;;;;;-2.52;100.00;96907.69;5090592;28;20454;-61
2021/12/14 06:21:30;;;;;;;34.00;14.35;;;;;;;-2.55;100.00;96908.56;5090075;28;20042;-61
2021/12/14 06:24:04;;;;;;;30.23;15.40;;;;;;;-2.47;100.00;96909.25;5090348;28;20078;-61
2021/12/14 06:26:38;;;;;;;38.95;17.90;;;;;;;-2.51;100.00;96899.06;5090867;28;20039;-61
2021/12/14 06:29:10;;;;;;;24.75;18.25;;;;;;;-2.60;100.00;96898.34;5090305;28;20036;-58
2021/12/14 06:31:37;;;;;;;34.13;18.05;;;;;;;-2.56;100.00;96903.44;5089475;28;20040;-59
2021/12/14 06:34:20;;;;;;;27.58;15.95;;;;;;;-2.54;100.00;96904.25;5090429;28;20102;-59
2021/12/14 06:36:48;;;;;;;29.73;18.27;;;;;;;-2.57;100.00;96904.31;5073899;28;20037;-59
2021/12/14 06:39:14;;;;;;;36.88;21.13;;;;;;;-2.49;100.00;96907.59;5069554;28;20036;-58
2021/12/14 06:41:39;;;;;;;30.77;20.73;;;;;;;-2.47;100.00;96911.84;5070068;28;20111;-59
2021/12/14 06:44:05;;;;;;;33.88;18.85;;;;;;;-2.42;100.00;96908.34;5069960;28;20044;-61
2021/12/14 06:46:36;;;;;;;31.35;16.35;;;;;;;-2.36;100.00;96913.34;5076153;28;20167;-59
2021/12/14 06:49:09;;;;;;;36.30;17.10;;;;;;;-2.40;100.00;96912.56;5089422;28;20044;-61
2021/12/14 06:51:36;;;;;;;33.40;17.98;;;;;;;-2.40;100.00;96907.41;5090088;28;20039;-61
2021/12/14 06:54:07;;;;;;;27.52;17.05;;;;;;;-2.40;100.00;96907.41;5090191;28;20075;-61
2021/12/14 06:56:34;;;;;;;29.40;16.17;;;;;;;-2.34;100.00;96911.59;5081524;28;20460;-59
2021/12/14 06:59:13;;;;;;;30.23;16.10;;;;;;;-2.35;100.00;96923.63;5089879;28;20028;-59
2021/12/14 07:01:46;;;;;;;28.75;17.05;;;;;;;-2.40;100.00;96924.63;5090015;28;20164;-59
2021/12/14 07:04:20;;;;;;;25.15;16.65;;;;;;;-2.39;100.00;96924.56;5088176;28;20383;-61
2021/12/14 07:06:55;;;;;;;48.83;19.45;;;;;;;-2.35;100.00;96918.47;5056462;28;20499;-58
2021/12/14 07:09:25;;;;;;;34.35;15.23;;;;;;;-2.34;100.00;96917.59;5087768;28;20040;-58
2021/12/14 07:12:05;;;;;;;25.05;15.50;;;;;;;-2.33;100.00;96915.88;5087749;28;20036;-58
2021/12/14 07:14:30;;;;;;;37.35;13.48;;;;;;;-2.31;100.00;96927.00;5088159;28;20075;-50
2021/12/14 07:17:01;;;;;;;44.15;12.95;;;;;;;-2.25;100.00;96936.34;5089690;28;20063;-52
2021/12/14 07:19:53;;;;;;;33.70;15.63;;;;;;;-2.35;100.00;96946.84;5088596;28;20068;-52
2021/12/14 07:22:25;;;;;;;32.33;12.02;;;;;;;-2.22;100.00;96938.84;5087445;28;20101;-50
2021/12/14 07:25:13;;;;;;;33.40;13.13;;;;;;;-2.20;100.00;96937.09;5086397;28;20568;-51
2021/12/14 07:27:46;;;;;;;37.15;13.95;;;;;;;-2.27;100.00;96932.94;5088247;28;20028;-51
2021/12/14 07:30:15;;;;;;;31.95;13.73;;;;;;;-2.37;100.00;96938.28;5086447;28;20024;-50
2021/12/14 07:32:40;;;;;;;19.13;12.48;;;;;;;-2.40;100.00;96935.78;5087819;28;20026;-51
2021/12/14 07:35:27;;;;;;;21.65;15.48;;;;;;;-2.33;100.00;96927.03;5088165;28;20032;-50
2021/12/14 07:37:56;;;;;;;28.88;15.77;;;;;;;-2.29;100.00;96925.22;5069314;28;20041;-49
2021/12/14 07:40:24;;;;;;;32.92;15.32;;;;;;;-2.31;100.00;96922.72;5071821;28;20063;-50
2021/12/14 07:43:06;;;;;;;26.85;15.68;;;;;;;-2.33;100.00;96918.44;5087256;28;20032;-51
2021/12/14 07:45:32;;;;;;;49.28;16.73;;;;;;;-2.37;100.00;96912.50;5089062;28;20087;-52
2021/12/14 07:47:57;;;;;;;53.70;18.48;;;;;;;-2.40;100.00;96909.97;5088229;28;20486;-55
2021/12/14 07:50:41;;;;;;;42.95;19.33;;;;;;;-2.42;100.00;96904.00;5091160;28;20060;-50
2021/12/14 07:53:07;;;;;;;43.83;18.63;;;;;;;-2.43;100.00;96904.03;5092845;28;20499;-51
2021/12/14 07:55:38;;;;;;;36.75;18.13;;;;;;;-2.41;100.00;96910.88;5092605;28;20043;-51
2021/12/14 07:58:05;;;;;;;25.08;16.58;;;;;;;-2.39;100.00;96923.75;5092688;28;20097;-50
2021/12/14 08:00:35;;;;;;;27.50;17.35;;;;;;;-2.29;100.00;96919.25;5088793;28;20126;-50
2021/12/14 08:03:02;;;;;;;34.33;21.75;;;;;;;-2.21;100.00;96923.34;5089146;28;20048;-52
2021/12/14 08:05:29;;;;;;;30.35;18.05;;;;;;;-2.23;100.00;96929.41;5088810;28;20539;-52
2021/12/14 08:08:00;;;;;;;45.70;18.25;;;;;;;-2.07;100.00;96932.50;5088950;28;20032;-51
2021/12/14 08:10:34;;;;;;;27.05;18.10;;;;;;;-2.18;100.00;96935.31;5087122;28;20482;-50
2021/12/14 08:13:15;;;;;;;40.60;20.00;;;;;;;-2.06;100.00;96936.78;5090933;28;20040;-50
2021/12/14 08:15:53;;;;;;;54.67;22.50;;;;;;;-2.02;100.00;96939.28;5087896;28;20523;-49
2021/12/14 08:18:38;;;;;;;39.95;21.27;;;;;;;-2.04;100.00;96935.88;5070460;28;20039;-50
2021/12/14 08:21:10;;;;;;;34.30;19.42;;;;;;;-2.12;100.00;96927.44;5091332;28;20064;-51
2021/12/14 08:23:40;;;;;;;42.95;19.83;;;;;;;-2.13;100.00;96920.59;5090783;28;20546;-48
2021/12/14 08:26:05;;;;;;;40.22;20.17;;;;;;;-2.08;100.00;96926.50;5088378;28;20119;-50
2021/12/14 08:28:31;;;;;;;36.90;20.92;;;;;;;-2.17;100.00;96918.97;5080751;28;20155;-50
2021/12/14 08:31:05;;;;;;;70.80;20.58;;;;;;;-2.20;100.00;96919.91;5071593;28;20070;-52
2021/12/14 08:33:32;;;;;;;36.63;17.33;;;;;;;-2.22;100.00;96931.94;5088964;28;20052;-50
2021/12/14 08:36:02;;;;;;;36.90;19.63;;;;;;;-2.26;100.00;96937.22;5064432;28;20037;-52
2021/12/14 08:38:31;;;;;;;69.82;18.83;;;;;;;-2.31;100.00;96935.59;5073569;28;20089;-52
2021/12/14 08:41:07;;;;;;;24.48;17.98;;;;;;;-2.31;100.00;96938.19;5088788;28;20036;-51
2021/12/14 08:43:34;;;;;;;70.63;25.27;;;;;;;-2.33;100.00;96944.25;5081764;28;20123;-52
2021/12/14 08:46:00;;;;;;;40.45;23.52;;;;;;;-2.33;100.00;96945.06;5070658;28;20406;-52
2021/12/14 08:48:31;;;;;;;36.35;19.75;;;;;;;-2.31;100.00;96947.63;5089116;28;20044;-52
2021/12/14 08:51:31;;;;;;;27.85;19.40;;;;;;;-2.32;100.00;96951.97;5088927;28;20035;-53
2021/12/14 08:54:27;;;;;;;53.85;22.00;;;;;;;-2.24;100.00;96938.03;5071515;28;20143;-53
2021/12/14 08:56:57;;;;;;;45.43;20.30;;;;;;;-2.17;100.00;96940.47;5084260;28;20114;-51
2021/12/14 08:59:24;;;;;;;41.65;21.73;;;;;;;-2.20;100.00;96937.97;5090653;28;20032;-52
2021/12/14 09:01:51;;;;;;;82.68;23.42;;;;;;;-2.20;100.00;96944.84;5089665;28;20036;-53
2021/12/14 09:04:21;;;;;;;31.55;21.48;;;;;;;-2.24;100.00;96946.63;5091364;28;20467;-51
2021/12/14 09:06:53;;;;;;;35.15;18.63;;;;;;;-2.27;100.00;96949.25;5091442;28;20064;-53
2021/12/14 09:09:22;;;;;;;28.60;18.80;;;;;;;-2.22;100.00;96956.91;5091312;28;20513;-54
2021/12/14 09:11:53;;;;;;;36.20;21.35;;;;;;;-2.23;100.00;96950.06;5091028;28;20082;-50
2021/12/14 09:14:19;;;;;;;46.53;24.60;;;;;;;-2.18;100.00;96964.56;5091122;28;20043;-50
2021/12/14 09:16:48;;;;;;;49.50;25.33;;;;;;;-2.11;100.00;96954.94;5088624;28;20040;-53
2021/12/14 09:19:26;;;;;;;40.42;20.55;;;;;;;-2.09;100.00;96957.50;5090737;28;20038;-53
2021/12/14 09:21:55;;;;;;;31.17;20.13;;;;;;;-1.93;100.00;96964.03;5088543;28;20504;-51
2021/12/14 09:24:23;;;;;;;50.17;21.83;;;;;;;-1.92;100.00;96957.13;5091113;28;20035;-53
2021/12/14 09:27:05;;;;;;;35.63;21.17;;;;;;;-1.82;100.00;96963.81;5089568;28;20034;-52
2021/12/14 09:29:32;;;;;;;45.10;18.70;;;;;;;-1.74;100.00;96961.88;5083705;28;20036;-52
2021/12/14 09:32:00;;;;;;;28.77;19.73;;;;;;;-1.69;100.00;96966.09;5090449;28;20109;-51
2021/12/14 09:34:30;;;;;;;38.17;20.17;;;;;;;-1.66;100.00;96973.75;5090741;28;20051;-51
2021/12/14 09:36:58;;;;;;;31.52;19.63;;;;;;;-1.58;100.00;96982.19;5090790;28;20032;-53
2021/12/14 09:39:37;;;;;;;30.52;20.25;;;;;;;-1.39;100.00;96974.84;5088849;28;20108;-51
2021/12/14 09:42:08;;;;;;;31.17;20.02;;;;;;;-1.25;100.00;96977.09;5085381;28;20055;-53
2021/12/14 09:44:36;;;;;;;48.78;20.02;;;;;;;-1.23;100.00;96983.06;5087164;28;20020;-53
2021/12/14 09:47:10;;;;;;;36.30;18.90;;;;;;;-1.25;100.00;96976.25;5089654;28;20044;-51
2021/12/14 09:49:38;;;;;;;56.70;18.85;;;;;;;-1.25;100.00;96976.25;5080660;28;20067;-53
2021/12/14 09:52:09;;;;;;;80.03;18.55;;;;;;;-1.24;100.00;96970.22;5086819;28;20056;-54
2021/12/14 09:54:36;;;;;;;60.38;19.23;;;;;;;-1.16;100.00;96963.97;5086978;28;20048;-52
2021/12/14 09:57:13;;;;;;;36.35;17.83;;;;;;;-1.06;100.00;96963.72;5088264;28;20107;-53
2021/12/14 09:59:39;;;;;;;43.65;19.80;;;;;;;-0.85;100.00;96964.06;5088283;28;20063;-53
2021/12/14 10:02:33;;;;;;;56.03;19.83;;;;;;;-0.79;100.00;96964.75;5087830;28;20167;-54
2021/12/14 10:05:06;;;;;;;28.45;20.85;;;;;;;-0.81;100.00;96966.53;5085913;28;20080;-53
2021/12/14 10:07:32;;;;;;;34.75;20.60;;;;;;;-0.71;100.00;96967.13;5087966;28;20487;-53
2021/12/14 10:10:00;;;;;;;52.30;22.88;;;;;;;-0.54;100.00;96968.41;5088884;28;20036;-51
2021/12/14 10:14:57;;;;;;;36.13;24.70;;;;;;;-0.49;100.00;96957.03;5088530;28;20024;-52
2021/12/14 10:17:24;;;;;;;47.38;24.63;;;;;;;-0.49;100.00;96954.44;5086352;28;20056;-54
2021/12/14 10:19:50;;;;;;;76.82;27.40;;;;;;;-0.48;100.00;96958.72;5082743;28;20032;-53
2021/12/14 10:22:24;;;;;;;36.60;24.05;;;;;;;-0.54;100.00;96958.06;5088365;28;20430;-51
2021/12/14 10:24:52;;;;;;;44.03;22.25;;;;;;;-0.48;100.00;96966.47;5086688;28;20804;-50
2021/12/14 10:27:21;;;;;;;45.22;18.83;;;;;;;-0.34;100.00;96960.91;5087397;28;20035;-51
2021/12/14 10:29:47;;;;;;;53.50;18.38;;;;;;;-0.39;100.00;96955.03;5085137;28;20047;-52
2021/12/14 10:32:21;;;;;;;28.05;20.00;;;;;;;-0.24;100.00;96955.50;5063212;28;20137;-50
2021/12/14 10:34:52;;;;;;;38.60;21.20;;;;;;;-0.24;100.00;96953.75;5083980;28;20152;-52
2021/12/14 10:37:24;;;;;;;35.42;21.33;;;;;;;-0.28;100.00;96953.91;5087127;28;20063;-53
2021/12/14 10:45:24;;;;;;;62.45;20.17;;;;;;;-0.23;100.00;96955.44;5088256;28;20097;-52
2021/12/14 10:47:50;;;;;;;23.25;17.67;;;;;;;-0.21;100.00;96953.69;5088712;28;20057;-54
2021/12/14 10:50:21;;;;;;;31.40;15.88;;;;;;;-0.13;100.00;96962.94;5089076;28;20141;-53
2021/12/14 10:52:48;;;;;;;32.70;16.25;;;;;;;-0.03;100.00;96954.88;5085827;28;20361;-54
2021/12/14 10:55:19;;;;;;;29.80;17.08;;;;;;;0.01;100.00;96958.22;5085369;28;20044;-52
2021/12/14 10:57:47;;;;;;;39.05;18.85;;;;;;;-0.09;100.00;96955.06;5087932;28;20415;-53
2021/12/14 11:00:31;;;;;;;40.08;17.67;;;;;;;-0.15;100.00;96952.63;5077474;28;20044;-54
2021/12/14 11:03:09;;;;;;;89.55;17.27;;;;;;;-0.12;100.00;96949.94;5070236;28;20093;-52
2021/12/14 11:05:40;;;;;;;32.58;17.75;;;;;;;0.05;100.00;96951.19;5086600;28;20649;-52
2021/12/14 11:08:19;;;;;;;31.38;20.70;;;;;;;0.20;100.00;96949.88;5085495;28;20040;-53
2021/12/14 11:10:45;;;;;;;35.17;19.83;;;;;;;0.34;100.00;96952.06;5082166;28;20402;-52
2021/12/14 11:13:12;;;;;;;60.97;19.70;;;;;;;0.32;100.00;96939.16;5088423;28;20028;-52
2021/12/14 11:15:49;;;;;;;35.83;20.20;;;;;;;0.39;100.00;96938.03;5086507;28;20547;-54
2021/12/14 11:18:21;;;;;;;28.77;18.25;;;;;;;0.48;100.00;96938.66;5080365;28;20063;-53
2021/12/14 11:20:53;;;;;;;32.08;15.32;;;;;;;0.74;100.00;96940.41;5084318;28;20416;-52
2021/12/14 11:23:29;;;;;;;25.92;17.42;;;;;;;0.71;100.00;96930.13;5083752;28;20467;-54
2021/12/14 11:26:44;;;;;;;53.97;18.42;;;;;;;0.67;100.00;96929.41;5087976;28;20040;-50
2021/12/14 11:29:16;;;;;;;28.10;18.13;;;;;;;0.58;100.00;96919.31;5070297;28;20044;-50
2021/12/14 11:31:50;;;;;;;26.20;18.30;;;;;;;0.83;100.00;96906.41;5088308;28;20091;-49
2021/12/14 11:34:30;;;;;;;25.27;18.02;;;;;;;0.78;100.00;96895.34;5087948;28;20040;-53
2021/12/14 11:37:02;;;;;;;48.03;21.40;;;;;;;0.95;100.00;96886.97;5088663;28;20042;-53
2021/12/14 11:39:34;;;;;;;31.67;19.92;;;;;;;1.07;100.00;96883.09;5088343;28;20090;-50
2021/12/14 11:42:21;;;;;;;27.88;18.08;;;;;;;1.09;97.78;96877.84;5088841;28;20060;-53
2021/12/14 11:44:55;;;;;;;19.83;16.25;;;;;;;1.16;98.55;96870.69;5088390;28;20499;-51
2021/12/14 11:50:04;;;;;;;49.60;28.42;;;;;;;0.95;100.00;96876.59;5087161;28;20458;-52
2021/12/14 11:52:57;;;;;;;68.10;37.25;;;;;;;1.00;100.00;96881.63;5089769;28;20040;-53
2021/12/14 11:55:41;;;;;;;68.57;39.60;;;;;;;1.16;99.73;96884.53;5087554;28;20065;-52
2021/12/14 11:58:12;;;;;;;53.08;30.92;;;;;;;1.40;98.85;96881.94;5088125;28;20124;-53
2021/12/14 12:00:49;;;;;;;32.60;22.13;;;;;;;1.25;97.87;96881.59;5089338;28;20036;-51
2021/12/14 12:03:26;;;;;;;22.85;16.27;;;;;;;1.17;98.73;96880.16;5087438;28;20036;-54
2021/12/14 12:06:06;;;;;;;21.77;16.13;;;;;;;1.14;98.24;96865.59;5089201;28;20036;-53
2021/12/14 12:11:21;;;;;;;25.90;16.27;;;;;;;0.90;99.79;96862.09;5087663;28;20031;-52